Time;durP1;ratioP1;P1;durP2;ratioP2;P2;SDS_P1;SDS_P2;PMS_P1;PMS_P2;Temp;Humidity;BMP_temperature;BMP_pressure;BME280_temperature;BME280_humidity;BME280_pressure;Samples;Min_cycle;Max_cycle;Signal;HPM_P1;HPM_P2
2023/12/23 00:00:46;;;;;;;20.67;5.90;;;;;;;8.34;100.00;101007.94;5029071;28;20230;-74
2023/12/23 00:03:11;;;;;;;27.75;5.75;;;;;;;8.38;100.00;101000.88;5030259;28;20328;-75
2023/12/23 00:05:36;;;;;;;13.32;5.07;;;;;;;8.39;100.00;101003.47;5026907;28;20041;-75
2023/12/23 00:08:02;;;;;;;15.07;4.07;;;;;;;8.37;100.00;101002.66;5031269;28;20387;-75
2023/12/23 00:10:27;;;;;;;17.10;3.20;;;;;;;8.36;100.00;101016.59;5022651;28;20232;-74
2023/12/23 00:12:52;;;;;;;23.15;2.90;;;;;;;8.38;100.00;101022.59;5016883;28;20037;-75
2023/12/23 00:15:18;;;;;;;16.13;2.97;;;;;;;8.40;100.00;101020.84;5031136;28;20340;-75
2023/12/23 00:17:43;;;;;;;18.17;2.80;;;;;;;8.43;100.00;101028.59;5027950;28;20263;-74
2023/12/23 00:20:08;;;;;;;14.13;3.42;;;;;;;8.46;100.00;101019.84;5033178;28;20288;-75
2023/12/23 00:22:34;;;;;;;16.45;2.97;;;;;;;8.44;100.00;101019.88;5028336;28;20319;-75
2023/12/23 00:24:59;;;;;;;12.07;2.50;;;;;;;8.46;100.00;101012.00;5024363;28;20037;-75
2023/12/23 00:27:25;;;;;;;21.33;3.30;;;;;;;8.47;100.00;101002.41;5027769;28;20183;-75
2023/12/23 00:29:50;;;;;;;8.57;2.00;;;;;;;8.50;100.00;101003.19;5022693;28;20072;-75
2023/12/23 00:32:16;;;;;;;12.00;2.47;;;;;;;8.51;100.00;100989.22;5028037;28;20057;-74
2023/12/23 00:34:41;;;;;;;27.40;3.47;;;;;;;8.50;100.00;100997.97;5024756;28;20041;-74
2023/12/23 00:37:07;;;;;;;16.92;2.53;;;;;;;8.56;100.00;100982.09;5028599;28;20200;-74
2023/12/23 00:39:32;;;;;;;15.18;2.30;;;;;;;8.54;100.00;100978.69;5030755;28;20050;-74
2023/12/23 00:41:58;;;;;;;12.60;1.90;;;;;;;8.57;100.00;100988.19;5029151;28;20026;-74
2023/12/23 00:44:23;;;;;;;6.55;2.58;;;;;;;8.59;100.00;100973.34;5035389;28;20036;-74
2023/12/23 00:46:48;;;;;;;11.13;2.17;;;;;;;8.59;100.00;100982.00;5036390;28;20350;-74
2023/12/23 00:49:14;;;;;;;10.82;2.20;;;;;;;8.59;100.00;100968.97;5035323;28;20290;-74
2023/12/23 00:51:39;;;;;;;13.40;2.22;;;;;;;8.58;100.00;100967.25;5031996;28;20356;-74
2023/12/23 00:54:04;;;;;;;20.02;2.78;;;;;;;8.59;100.00;100953.31;5035358;28;20037;-74
2023/12/23 00:56:30;;;;;;;15.75;1.83;;;;;;;8.61;100.00;100961.94;5034566;28;20041;-74
2023/12/23 00:58:55;;;;;;;14.15;2.03;;;;;;;8.63;100.00;100960.13;5032426;28;20041;-74
2023/12/23 01:01:20;;;;;;;12.25;2.10;;;;;;;8.64;100.00;100960.97;5024636;28;20377;-74
2023/12/23 01:03:46;;;;;;;19.05;2.55;;;;;;;8.65;100.00;100957.47;5034375;28;20052;-75
2023/12/23 01:06:11;;;;;;;14.20;2.20;;;;;;;8.64;100.00;100959.25;5030682;28;20050;-74
2023/12/23 01:08:37;;;;;;;10.07;2.05;;;;;;;8.63;100.00;100949.69;5026710;28;20336;-75
2023/12/23 01:11:02;;;;;;;9.35;2.55;;;;;;;8.65;100.00;100973.13;5025892;28;20325;-75
2023/12/23 01:13:28;;;;;;;9.07;2.20;;;;;;;8.64;100.00;100963.59;5027117;28;20053;-74
2023/12/23 01:15:54;;;;;;;7.28;1.52;;;;;;;8.65;100.00;100958.31;5032265;28;20320;-75
2023/12/23 01:18:19;;;;;;;7.15;1.40;;;;;;;8.59;100.00;100955.06;5015671;28;20036;-75
2023/12/23 01:20:44;;;;;;;9.25;1.60;;;;;;;8.61;100.00;100958.47;5026725;28;20048;-74
2023/12/23 01:23:10;;;;;;;7.60;1.58;;;;;;;8.60;100.00;100968.06;5034832;28;20044;-74
2023/12/23 01:25:35;;;;;;;11.02;1.95;;;;;;;8.60;100.00;100955.03;5033168;28;20029;-75
2023/12/23 01:28:06;;;;;;;6.63;1.58;;;;;;;8.58;100.00;100943.75;5033404;28;20105;-75
2023/12/23 01:30:33;;;;;;;7.65;1.50;;;;;;;8.60;100.00;100946.31;5030754;28;20301;-75
2023/12/23 01:32:58;;;;;;;12.18;2.03;;;;;;;8.50;100.00;100924.03;5019180;28;20045;-75
2023/12/23 01:35:23;;;;;;;10.05;1.40;;;;;;;8.54;100.00;100952.56;5032999;28;20202;-75
2023/12/23 01:37:49;;;;;;;10.38;1.80;;;;;;;8.49;100.00;100938.81;5032112;28;20049;-75
2023/12/23 01:40:14;;;;;;;14.88;2.00;;;;;;;8.55;100.00;100948.22;5034144;28;20374;-75
2023/12/23 01:42:40;;;;;;;12.18;1.73;;;;;;;8.52;100.00;100938.72;5031914;28;20122;-74
2023/12/23 01:45:05;;;;;;;11.95;2.10;;;;;;;8.54;100.00;100926.47;5034192;28;20062;-75
2023/12/23 01:47:31;;;;;;;12.75;2.25;;;;;;;8.54;100.00;100931.69;5034069;28;20379;-75
2023/12/23 01:49:57;;;;;;;17.95;2.42;;;;;;;8.57;100.00;100936.00;5034374;28;20245;-74
2023/12/23 01:52:23;;;;;;;14.95;2.13;;;;;;;8.58;100.00;100916.78;5034140;28;20328;-75
2023/12/23 01:54:49;;;;;;;13.38;2.40;;;;;;;8.59;100.00;100945.47;5034151;28;20260;-75
2023/12/23 01:57:16;;;;;;;10.55;1.90;;;;;;;8.60;100.00;100930.66;5022482;28;20030;-75
2023/12/23 01:59:41;;;;;;;12.30;1.90;;;;;;;8.63;100.00;100933.19;5014434;28;20048;-75
2023/12/23 02:02:08;;;;;;;11.13;1.92;;;;;;;8.68;100.00;100960.00;5041115;28;20037;-75
2023/12/23 02:04:33;;;;;;;13.65;2.00;;;;;;;8.60;100.00;100933.25;5033821;28;20131;-74
2023/12/23 02:06:59;;;;;;;7.50;1.70;;;;;;;8.55;100.00;100937.75;5027184;28;20046;-75
2023/12/23 02:09:24;;;;;;;9.35;1.45;;;;;;;8.54;100.00;100908.19;5034300;28;20354;-75
2023/12/23 02:11:59;;;;;;;8.77;1.13;;;;;;;8.50;100.00;100924.88;5033286;28;20229;-75
2023/12/23 02:14:33;;;;;;;17.98;1.85;;;;;;;8.51;100.00;100912.66;5017420;28;20333;-74
2023/12/23 02:16:59;;;;;;;8.32;1.55;;;;;;;8.48;100.00;100915.34;5020410;28;20040;-74
2023/12/23 02:19:24;;;;;;;9.93;1.70;;;;;;;8.45;100.00;100909.34;5014698;28;20037;-74
2023/12/23 02:21:49;;;;;;;11.07;1.92;;;;;;;8.49;100.00;100907.50;5030770;28;20041;-74
2023/12/23 02:24:15;;;;;;;12.95;1.50;;;;;;;8.50;100.00;100900.53;5014451;28;20382;-74
2023/12/23 02:26:43;;;;;;;14.60;1.90;;;;;;;8.52;100.00;100888.28;5020775;28;20041;-74
2023/12/23 02:29:10;;;;;;;10.90;2.38;;;;;;;8.54;100.00;100900.38;5033409;28;20025;-74
2023/12/23 02:31:36;;;;;;;22.73;3.15;;;;;;;8.52;100.00;100873.47;5033959;28;20239;-74
2023/12/23 02:34:01;;;;;;;8.15;1.67;;;;;;;8.53;100.00;100875.19;5031660;28;20048;-75
2023/12/23 02:36:27;;;;;;;11.55;2.15;;;;;;;8.56;100.00;100879.44;5032725;28;20037;-74
2023/12/23 02:38:52;;;;;;;12.32;1.83;;;;;;;8.57;100.00;100895.06;5018716;28;20111;-74
2023/12/23 02:41:18;;;;;;;18.17;2.72;;;;;;;8.58;100.00;100870.66;5033177;28;20148;-75
2023/12/23 02:43:43;;;;;;;10.35;2.15;;;;;;;8.60;100.00;100873.22;5032846;28;20087;-74
2023/12/23 02:46:08;;;;;;;12.63;2.10;;;;;;;8.64;100.00;100880.03;5035674;28;20106;-74
2023/12/23 02:48:34;;;;;;;14.15;2.15;;;;;;;8.64;100.00;100883.53;5049460;28;20200;-74
2023/12/23 02:50:59;;;;;;;14.23;2.33;;;;;;;8.68;100.00;100875.56;5023860;28;20115;-74
2023/12/23 02:53:24;;;;;;;10.38;2.42;;;;;;;8.68;100.00;100886.03;5033676;28;20033;-74
2023/12/23 02:55:50;;;;;;;6.43;1.40;;;;;;;8.69;100.00;100877.28;5032074;28;20065;-74
2023/12/23 02:58:15;;;;;;;17.77;1.95;;;;;;;8.69;100.00;100869.47;5033793;28;20037;-74
2023/12/23 03:00:40;;;;;;;17.63;2.47;;;;;;;8.71;100.00;100905.06;5023946;28;20033;-74
2023/12/23 03:03:06;;;;;;;8.57;1.48;;;;;;;8.72;100.00;100883.28;5015085;28;20379;-74
2023/12/23 03:05:31;;;;;;;10.90;2.53;;;;;;;8.72;100.00;100879.81;5020610;28;20247;-74
2023/12/23 03:07:56;;;;;;;9.48;1.95;;;;;;;8.72;100.00;100861.53;5016380;28;20049;-74
2023/12/23 03:10:22;;;;;;;7.82;1.60;;;;;;;8.71;100.00;100870.25;5022012;28;20036;-74
2023/12/23 03:12:47;;;;;;;12.30;1.90;;;;;;;8.73;100.00;100879.78;5033202;28;20049;-74
2023/12/23 03:15:13;;;;;;;13.85;2.17;;;;;;;8.75;100.00;100862.28;5032768;28;20040;-74
2023/12/23 03:17:38;;;;;;;9.85;2.72;;;;;;;8.76;100.00;100877.03;5019854;28;20034;-74
2023/12/23 03:20:04;;;;;;;14.27;2.25;;;;;;;8.78;100.00;100871.78;5019031;28;20033;-74
2023/12/23 03:22:30;;;;;;;18.50;2.58;;;;;;;8.77;100.00;100865.72;5033535;28;20037;-74
2023/12/23 03:24:58;;;;;;;15.48;2.20;;;;;;;8.76;100.00;100865.75;5031928;28;20037;-74
2023/12/23 03:27:24;;;;;;;10.48;1.83;;;;;;;8.76;100.00;100863.16;5023633;28;20071;-74
2023/12/23 03:29:49;;;;;;;8.63;1.98;;;;;;;8.76;100.00;100864.00;5027229;28;20332;-74
2023/12/23 03:32:14;;;;;;;11.63;1.92;;;;;;;8.75;100.00;100859.69;5018994;28;20173;-74
2023/12/23 03:34:41;;;;;;;11.02;2.13;;;;;;;8.73;100.00;100856.28;5022377;28;20034;-74
2023/12/23 03:37:06;;;;;;;14.43;2.40;;;;;;;8.72;100.00;100849.34;5027003;28;20044;-74
2023/12/23 03:39:31;;;;;;;9.73;1.75;;;;;;;8.75;100.00;100877.09;5033032;28;20026;-74
2023/12/23 03:41:57;;;;;;;16.88;1.90;;;;;;;8.75;100.00;100859.69;5029568;28;20374;-74
2023/12/23 03:44:22;;;;;;;21.77;3.00;;;;;;;8.73;100.00;100873.69;5028660;28;20225;-74
2023/12/23 03:46:47;;;;;;;10.95;1.98;;;;;;;8.74;100.00;100864.94;5020153;28;20034;-74
2023/12/23 03:49:13;;;;;;;11.50;2.28;;;;;;;8.73;100.00;100871.94;5033015;28;20350;-74
2023/12/23 03:51:38;;;;;;;17.27;2.33;;;;;;;8.73;100.00;100858.88;5022738;28;20304;-74
2023/12/23 03:54:04;;;;;;;12.05;1.90;;;;;;;8.75;100.00;100844.03;5014821;28;20041;-74
2023/12/23 03:56:29;;;;;;;9.90;3.15;;;;;;;8.75;100.00;100864.91;5021499;28;20370;-75
2023/12/23 03:58:54;;;;;;;9.85;1.65;;;;;;;8.76;100.00;100827.44;5035158;28;20126;-74
2023/12/23 04:01:19;;;;;;;9.18;2.88;;;;;;;8.73;100.00;100824.06;5035976;28;20291;-74
2023/12/23 04:03:45;;;;;;;13.65;2.03;;;;;;;8.72;100.00;100833.66;5036054;28;20033;-74
2023/12/23 04:06:14;;;;;;;9.95;2.13;;;;;;;8.73;100.00;100834.50;5035541;28;20091;-74
2023/12/23 04:08:40;;;;;;;9.02;2.00;;;;;;;8.75;100.00;100830.97;5021783;28;20337;-74
2023/12/23 04:11:05;;;;;;;9.13;2.00;;;;;;;8.74;100.00;100831.84;5035726;28;20036;-74
2023/12/23 04:13:31;;;;;;;14.43;2.22;;;;;;;8.73;100.00;100811.00;5036271;28;20037;-74
2023/12/23 04:15:56;;;;;;;10.80;2.25;;;;;;;8.71;100.00;100803.22;5031597;28;20210;-74
2023/12/23 04:18:21;;;;;;;7.68;1.95;;;;;;;8.70;100.00;100798.94;5024863;28;21269;-74
2023/12/23 04:20:47;;;;;;;8.73;1.90;;;;;;;8.70;100.00;100806.75;5036203;28;20256;-74
2023/12/23 04:23:12;;;;;;;12.10;1.90;;;;;;;8.71;100.00;100802.38;5035713;28;20334;-74
2023/12/23 04:25:37;;;;;;;17.80;2.42;;;;;;;8.72;100.00;100807.56;5035594;28;20107;-74
2023/12/23 04:28:03;;;;;;;8.75;1.90;;;;;;;8.75;100.00;100802.25;5035343;28;20084;-74
2023/12/23 04:30:29;;;;;;;18.65;2.33;;;;;;;8.77;100.00;100802.19;5036102;28;20025;-74
2023/12/23 04:32:54;;;;;;;12.07;2.08;;;;;;;8.75;100.00;100819.66;5034267;28;20355;-74
2023/12/23 04:35:20;;;;;;;12.77;2.03;;;;;;;8.75;100.00;100814.41;5035930;28;20037;-74
2023/12/23 04:37:45;;;;;;;10.05;2.35;;;;;;;8.76;100.00;100813.53;5031653;28;20029;-74
2023/12/23 04:40:11;;;;;;;13.07;1.73;;;;;;;8.75;100.00;100812.69;5032132;28;20040;-74
2023/12/23 04:42:36;;;;;;;21.02;2.88;;;;;;;8.75;100.00;100802.25;5030049;28;20037;-74
2023/12/23 04:45:02;;;;;;;14.40;2.08;;;;;;;8.77;100.00;100796.97;5035409;28;20036;-74
2023/12/23 04:47:28;;;;;;;10.30;2.38;;;;;;;8.79;100.00;100800.38;5034958;28;20029;-74
2023/12/23 04:49:53;;;;;;;11.05;2.17;;;;;;;8.78;100.00;100788.22;5035283;28;20025;-74
2023/12/23 04:52:18;;;;;;;11.02;1.83;;;;;;;8.80;100.00;100784.66;5035960;28;20052;-74
2023/12/23 04:54:44;;;;;;;10.00;2.42;;;;;;;8.78;100.00;100790.81;5016324;28;20344;-74
2023/12/23 04:57:09;;;;;;;10.05;2.45;;;;;;;8.80;100.00;100813.38;5022662;28;20349;-74
2023/12/23 04:59:35;;;;;;;15.90;2.08;;;;;;;8.83;100.00;100802.81;5032080;28;20304;-74
2023/12/23 05:02:00;;;;;;;12.45;1.92;;;;;;;8.82;100.00;100813.31;5031466;28;20214;-74
2023/12/23 05:04:25;;;;;;;21.98;2.28;;;;;;;8.83;100.00;100830.69;5033729;28;20063;-74
2023/12/23 05:06:50;;;;;;;17.48;2.38;;;;;;;8.84;100.00;100803.66;5022235;28;20042;-74
2023/12/23 05:09:16;;;;;;;12.27;2.10;;;;;;;8.84;100.00;100804.53;5033817;28;20033;-73
2023/12/23 05:11:41;;;;;;;16.27;2.28;;;;;;;8.84;100.00;100799.31;5029104;28;20100;-74
2023/12/23 05:14:07;;;;;;;17.55;2.67;;;;;;;8.84;100.00;100801.94;5015969;28;20034;-74
2023/12/23 05:16:32;;;;;;;18.20;2.80;;;;;;;8.86;100.00;100806.22;5026782;28;20033;-73
2023/12/23 05:18:57;;;;;;;14.55;2.25;;;;;;;8.81;100.00;100791.56;5032808;28;20219;-74
2023/12/23 05:21:22;;;;;;;11.20;1.83;;;;;;;8.84;100.00;100788.00;5035022;28;20264;-74
2023/12/23 05:23:48;;;;;;;13.70;1.95;;;;;;;8.82;100.00;100782.84;5034524;28;20224;-74
2023/12/23 05:26:19;;;;;;;10.82;2.20;;;;;;;8.85;100.00;100800.16;5035109;28;20041;-74
2023/12/23 05:28:45;;;;;;;16.00;2.15;;;;;;;8.86;100.00;100817.56;5030181;28;20073;-74
2023/12/23 05:31:10;;;;;;;14.05;2.35;;;;;;;8.85;100.00;100815.81;5033055;28;20247;-75
2023/12/23 05:33:36;;;;;;;14.80;2.20;;;;;;;8.88;100.00;100807.03;5034876;28;20037;-74
2023/12/23 05:36:01;;;;;;;12.15;2.53;;;;;;;8.85;100.00;100797.53;5032016;28;20033;-74
2023/12/23 05:38:27;;;;;;;6.55;1.80;;;;;;;8.87;100.00;100797.50;5034526;28;20033;-74
2023/12/23 05:40:52;;;;;;;11.45;2.72;;;;;;;8.85;100.00;100802.78;5021744;28;20034;-74
2023/12/23 05:43:17;;;;;;;6.95;2.17;;;;;;;8.88;100.00;100809.63;5027599;28;20034;-74
2023/12/23 05:45:43;;;;;;;9.23;1.85;;;;;;;8.88;100.00;100799.19;5032050;28;20038;-74
2023/12/23 05:48:08;;;;;;;13.88;2.35;;;;;;;8.89;100.00;100793.91;5034042;28;20130;-74
2023/12/23 05:50:33;;;;;;;17.65;2.75;;;;;;;8.90;100.00;100789.56;5034498;28;20033;-74
2023/12/23 05:52:59;;;;;;;14.45;2.08;;;;;;;8.92;100.00;100787.75;5034675;28;20260;-74
2023/12/23 05:55:24;;;;;;;6.88;1.52;;;;;;;8.92;100.00;100765.09;5026177;28;20037;-74
2023/12/23 05:57:50;;;;;;;13.40;2.28;;;;;;;8.92;100.00;100777.31;5033519;28;20037;-74
2023/12/23 06:00:15;;;;;;;12.88;1.67;;;;;;;8.92;100.00;100779.91;5021782;28;20030;-74
2023/12/23 06:02:41;;;;;;;10.35;1.88;;;;;;;8.92;100.00;100766.84;5026867;28;20037;-74
2023/12/23 06:05:06;;;;;;;15.43;2.65;;;;;;;8.91;100.00;100780.81;5030527;28;20076;-74
2023/12/23 06:07:31;;;;;;;13.63;2.85;;;;;;;8.92;100.00;100782.53;5028824;28;20329;-74
2023/12/23 06:09:57;;;;;;;16.23;3.00;;;;;;;8.93;100.00;100807.72;5015277;28;20032;-74
2023/12/23 06:12:23;;;;;;;8.85;1.92;;;;;;;8.97;100.00;100772.78;5023949;28;20061;-74
2023/12/23 06:14:50;;;;;;;14.18;3.15;;;;;;;8.94;100.00;100802.44;5021820;28;20037;-74
2023/12/23 06:17:15;;;;;;;9.93;2.03;;;;;;;8.95;100.00;100765.00;5031799;28;20063;-74
2023/12/23 06:19:41;;;;;;;10.48;2.35;;;;;;;8.96;100.00;100786.72;5032933;28;20038;-74
2023/12/23 06:22:07;;;;;;;19.45;2.97;;;;;;;8.95;100.00;100785.00;5031321;28;20044;-74
2023/12/23 06:24:33;;;;;;;18.08;3.10;;;;;;;8.94;100.00;100784.16;5033786;28;20101;-74
2023/12/23 06:26:58;;;;;;;15.40;2.10;;;;;;;8.94;100.00;100788.53;5033097;28;20045;-74
2023/12/23 06:29:23;;;;;;;8.30;1.92;;;;;;;8.95;100.00;100777.19;5024605;28;20347;-73
2023/12/23 06:31:49;;;;;;;16.40;2.67;;;;;;;8.97;100.00;100794.53;5024849;28;20132;-74
2023/12/23 06:34:14;;;;;;;14.50;2.15;;;;;;;8.97;100.00;100781.47;5018159;28;20049;-73
2023/12/23 06:36:40;;;;;;;13.57;2.22;;;;;;;8.95;100.00;100779.78;5023684;28;20292;-74
2023/12/23 06:39:05;;;;;;;16.15;2.22;;;;;;;8.95;100.00;100787.63;5024960;28;20311;-74
2023/12/23 06:41:30;;;;;;;13.05;2.03;;;;;;;8.94;100.00;100765.88;5032337;28;20041;-74
2023/12/23 06:43:56;;;;;;;14.70;2.08;;;;;;;8.96;100.00;100768.44;5032782;28;20033;-74
2023/12/23 06:46:21;;;;;;;14.93;3.17;;;;;;;8.95;100.00;100767.59;5030692;28;20197;-74
2023/12/23 06:48:46;;;;;;;16.48;2.00;;;;;;;8.95;100.00;100770.22;5014065;28;20268;-74
2023/12/23 06:51:12;;;;;;;16.33;2.38;;;;;;;8.96;100.00;100760.63;5031374;28;20048;-74
2023/12/23 06:53:37;;;;;;;14.30;2.03;;;;;;;8.96;100.00;100758.00;5016386;28;20128;-74
2023/12/23 06:56:06;;;;;;;13.88;3.08;;;;;;;8.96;100.00;100769.28;5028433;28;20037;-74
2023/12/23 06:58:32;;;;;;;13.98;2.15;;;;;;;8.98;100.00;100735.28;5033751;28;20045;-74
2023/12/23 07:00:57;;;;;;;9.00;2.00;;;;;;;8.96;100.00;100758.00;5032302;28;20301;-74
2023/12/23 07:03:22;;;;;;;15.27;2.85;;;;;;;8.97;100.00;100751.88;5032009;28;20033;-74
2023/12/23 07:05:48;;;;;;;14.98;2.15;;;;;;;8.96;100.00;100771.91;5021383;28;20112;-74
2023/12/23 07:08:13;;;;;;;19.83;3.03;;;;;;;8.99;100.00;100743.06;5027412;28;20033;-74
2023/12/23 07:10:39;;;;;;;9.48;1.77;;;;;;;8.97;100.00;100755.34;5032633;28;20029;-74
2023/12/23 07:13:04;;;;;;;12.50;2.08;;;;;;;9.00;100.00;100767.44;5013743;28;20038;-73
2023/12/23 07:15:29;;;;;;;11.88;2.00;;;;;;;8.98;100.00;100770.09;5017940;28;20017;-73
2023/12/23 07:17:55;;;;;;;15.77;2.55;;;;;;;8.99;100.00;100779.66;5051273;28;20119;-73
2023/12/23 07:20:20;;;;;;;10.52;2.03;;;;;;;9.03;100.00;100764.72;5053244;28;20045;-73
2023/12/23 07:22:45;;;;;;;11.40;2.25;;;;;;;9.07;100.00;100750.63;5053016;28;20040;-73
2023/12/23 07:25:11;;;;;;;9.02;1.25;;;;;;;9.07;100.00;100789.81;5033007;28;20033;-73
2023/12/23 07:27:36;;;;;;;6.93;1.77;;;;;;;9.07;100.00;100748.03;5033220;28;20040;-73
2023/12/23 07:30:03;;;;;;;16.75;2.38;;;;;;;9.10;100.00;100767.97;5033575;28;20532;-73
2023/12/23 07:32:28;;;;;;;13.10;1.98;;;;;;;9.11;100.00;100760.06;5032401;28;20057;-73
2023/12/23 07:34:53;;;;;;;10.35;2.08;;;;;;;9.10;100.00;100766.22;5036676;28;20072;-73
2023/12/23 07:37:19;;;;;;;14.05;2.10;;;;;;;9.11;100.00;100770.50;5037110;28;20103;-73
2023/12/23 07:39:44;;;;;;;12.82;2.33;;;;;;;9.13;100.00;100754.78;5036910;28;20234;-73
2023/12/23 07:42:09;;;;;;;9.02;1.80;;;;;;;9.11;100.00;100765.28;5037770;28;20209;-74
2023/12/23 07:44:36;;;;;;;9.85;1.98;;;;;;;9.10;100.00;100763.59;5027154;28;20033;-73
2023/12/23 07:47:03;;;;;;;9.75;1.95;;;;;;;9.12;100.00;100780.06;5030872;28;20296;-73
2023/12/23 07:49:30;;;;;;;7.03;2.13;;;;;;;9.13;100.00;100786.13;5021652;28;20234;-73
2023/12/23 07:51:55;;;;;;;16.63;2.90;;;;;;;9.11;100.00;100774.88;5022276;28;20065;-73
2023/12/23 07:54:21;;;;;;;12.43;2.20;;;;;;;9.10;100.00;100768.81;5017004;28;20100;-73
2023/12/23 07:56:46;;;;;;;11.68;2.22;;;;;;;9.10;100.00;100775.81;5027028;28;20056;-73
2023/12/23 07:59:11;;;;;;;7.47;1.65;;;;;;;9.11;100.00;100778.34;5034696;28;20325;-73
2023/12/23 08:01:44;;;;;;;18.27;1.98;;;;;;;9.10;100.00;100781.03;5036401;28;20060;-73
2023/12/23 08:04:09;;;;;;;23.40;2.75;;;;;;;9.09;100.00;100781.94;5016917;28;20040;-73
2023/12/23 08:06:35;;;;;;;13.30;2.20;;;;;;;9.09;100.00;100787.16;5018817;28;20053;-74
2023/12/23 08:09:00;;;;;;;14.25;2.20;;;;;;;9.11;100.00;100786.19;5027106;28;20103;-72
2023/12/23 08:11:25;;;;;;;15.27;2.20;;;;;;;9.14;100.00;100780.00;5032141;28;20088;-73
2023/12/23 08:13:51;;;;;;;17.58;1.88;;;;;;;9.14;100.00;100793.91;5025092;28;20351;-73
2023/12/23 08:16:16;;;;;;;7.65;1.73;;;;;;;9.17;100.00;100826.94;5023798;28;20037;-74
2023/12/23 08:18:42;;;;;;;11.55;1.58;;;;;;;9.14;100.00;100798.31;5035716;28;20041;-73
2023/12/23 08:21:08;;;;;;;11.23;1.83;;;;;;;9.09;100.00;100810.66;5036486;28;20048;-73
2023/12/23 08:23:33;;;;;;;7.57;1.85;;;;;;;9.00;100.00;100798.78;5025229;28;20359;-73
2023/12/23 08:25:59;;;;;;;16.77;2.17;;;;;;;9.00;100.00;100817.94;5018978;28;20096;-73
2023/12/23 08:28:25;;;;;;;16.40;2.67;;;;;;;8.98;100.00;100806.66;5035558;28;20144;-73
2023/12/23 08:30:50;;;;;;;8.77;1.52;;;;;;;8.97;100.00;100799.75;5035811;28;20052;-73
2023/12/23 08:33:16;;;;;;;9.88;1.98;;;;;;;8.97;100.00;100791.91;5035545;28;20340;-73
2023/12/23 08:35:43;;;;;;;11.63;1.88;;;;;;;8.97;100.00;100804.97;5036005;28;20029;-73
2023/12/23 08:38:08;;;;;;;10.02;1.90;;;;;;;8.98;100.00;100827.56;5044720;28;20260;-73
2023/12/23 08:40:34;;;;;;;12.05;1.98;;;;;;;9.00;100.00;100804.00;5026960;28;20040;-73
2023/12/23 08:42:59;;;;;;;14.48;2.25;;;;;;;9.00;100.00;100817.06;5035421;28;20059;-73
2023/12/23 08:45:24;;;;;;;16.45;2.85;;;;;;;9.06;100.00;100797.69;5018328;28;20037;-73
2023/12/23 08:47:50;;;;;;;16.77;3.03;;;;;;;9.06;100.00;100806.41;5041629;28;20047;-73
2023/12/23 08:50:15;;;;;;;16.95;2.85;;;;;;;9.04;100.00;100821.28;5046830;28;20099;-73
2023/12/23 08:52:40;;;;;;;9.65;1.73;;;;;;;9.06;100.00;100832.53;5055951;28;20033;-73
2023/12/23 08:55:06;;;;;;;21.60;2.78;;;;;;;9.09;100.00;100818.50;5037749;28;20033;-73
2023/12/23 08:57:33;;;;;;;14.75;2.50;;;;;;;9.11;100.00;100838.44;5033008;28;20049;-73
2023/12/23 08:59:59;;;;;;;16.08;2.80;;;;;;;9.11;100.00;100833.22;5034961;28;20042;-73
2023/12/23 09:02:26;;;;;;;7.93;1.95;;;;;;;9.12;100.00;100832.31;5031715;28;20101;-73
2023/12/23 09:04:51;;;;;;;13.73;2.35;;;;;;;9.15;100.00;100845.28;5023186;28;20107;-73
2023/12/23 09:07:17;;;;;;;17.42;2.25;;;;;;;9.14;100.00;100822.66;5024286;28;20264;-73
2023/12/23 09:09:42;;;;;;;16.55;2.72;;;;;;;9.14;100.00;100825.28;5030124;28;20037;-74
2023/12/23 09:12:08;;;;;;;11.63;2.25;;;;;;;9.16;100.00;100846.97;5022972;28;20379;-73
2023/12/23 09:14:33;;;;;;;15.57;2.45;;;;;;;9.17;100.00;100837.41;5026869;28;20099;-73
2023/12/23 09:16:59;;;;;;;11.35;2.03;;;;;;;9.15;100.00;100855.72;5026798;28;20391;-73
2023/12/23 09:19:24;;;;;;;17.42;2.10;;;;;;;9.16;100.00;100846.13;5022895;28;20376;-73
2023/12/23 09:21:50;;;;;;;8.82;2.08;;;;;;;9.16;100.00;100831.28;5027616;28;20045;-73
2023/12/23 09:24:15;;;;;;;14.55;2.67;;;;;;;9.18;100.00;100845.16;5021287;28;20123;-73
2023/12/23 09:26:41;;;;;;;12.93;2.50;;;;;;;9.19;100.00;100856.47;5028330;28;20041;-73
2023/12/23 09:29:07;;;;;;;10.48;1.67;;;;;;;9.17;100.00;100851.31;5023196;28;20326;-73
2023/12/23 09:31:33;;;;;;;14.27;2.47;;;;;;;9.18;100.00;100849.53;5035061;28;20037;-73
2023/12/23 09:33:58;;;;;;;13.00;2.28;;;;;;;9.17;100.00;100871.38;5030553;28;20044;-73
2023/12/23 09:36:23;;;;;;;7.90;1.95;;;;;;;9.21;100.00;100845.06;5028328;28;20045;-73
2023/12/23 09:38:49;;;;;;;12.00;1.67;;;;;;;9.22;100.00;100849.38;5023155;28;20083;-73
2023/12/23 09:41:14;;;;;;;9.70;1.80;;;;;;;9.24;100.00;100844.13;5021652;28;20364;-73
2023/12/23 09:43:40;;;;;;;11.07;2.03;;;;;;;9.25;100.00;100851.03;5030987;28;20064;-73
2023/12/23 09:46:07;;;;;;;10.98;2.13;;;;;;;9.26;100.00;100847.53;5046091;28;20032;-73
2023/12/23 09:48:33;;;;;;;13.13;2.45;;;;;;;9.25;100.00;100858.88;5043738;28;20117;-73
2023/12/23 09:50:58;;;;;;;11.13;2.10;;;;;;;9.27;100.00;100874.50;5047661;28;20336;-73
2023/12/23 09:53:26;;;;;;;12.65;1.73;;;;;;;9.27;100.00;100853.59;5048784;28;20060;-73
2023/12/23 09:55:52;;;;;;;9.25;1.55;;;;;;;9.28;100.00;100865.75;5034290;28;20020;-73
2023/12/23 09:58:17;;;;;;;11.25;2.03;;;;;;;9.30;100.00;100862.19;5030197;28;20347;-73
2023/12/23 10:00:45;;;;;;;12.38;2.15;;;;;;;9.33;100.00;100863.81;5033482;28;20259;-73
2023/12/23 10:03:11;;;;;;;12.32;1.38;;;;;;;9.33;100.00;100871.66;5044618;28;20048;-73
2023/12/23 10:05:42;;;;;;;9.35;1.88;;;;;;;9.34;100.00;100873.38;5044038;28;20076;-73
2023/12/23 10:08:08;;;;;;;9.80;1.90;;;;;;;9.36;100.00;100853.28;5049093;28;20047;-73
2023/12/23 10:10:33;;;;;;;8.95;2.40;;;;;;;9.36;100.00;100875.03;5036937;28;20060;-73
2023/12/23 10:12:59;;;;;;;12.25;2.08;;;;;;;9.40;100.00;100867.94;5045637;28;20051;-73
2023/12/23 10:15:24;;;;;;;9.88;1.42;;;;;;;9.42;100.00;100842.59;5045652;28;20263;-73
2023/12/23 10:17:50;;;;;;;9.38;1.58;;;;;;;9.43;100.00;100852.16;5037765;28;20033;-73
2023/12/23 10:20:15;;;;;;;7.65;1.80;;;;;;;9.45;100.00;100876.47;5028952;28;20095;-73
2023/12/23 10:22:44;;;;;;;9.80;1.50;;;;;;;9.46;100.00;100883.41;5028665;28;20061;-73
2023/12/23 10:25:10;;;;;;;10.82;1.58;;;;;;;9.49;100.00;100861.53;5025879;28;20352;-73
2023/12/23 10:27:39;;;;;;;8.85;1.40;;;;;;;9.51;100.00;100881.47;5026002;28;20041;-73
2023/12/23 10:30:10;;;;;;;15.35;1.33;;;;;;;9.54;100.00;100870.06;5029253;28;20033;-73
2023/12/23 10:32:37;;;;;;;5.78;1.10;;;;;;;9.55;100.00;100887.44;5029054;28;20060;-73
2023/12/23 10:35:12;;;;;;;7.57;1.98;;;;;;;9.57;100.00;100883.88;5029882;28;20201;-73
2023/12/23 10:37:40;;;;;;;8.88;1.73;;;;;;;9.59;100.00;100874.22;5028612;28;20145;-73
2023/12/23 10:40:20;;;;;;;8.90;1.57;;;;;;;9.61;100.00;100869.78;5029353;28;20044;-73
2023/12/23 10:42:47;;;;;;;5.95;1.30;;;;;;;9.63;100.00;100863.66;5028638;28;20044;-73
2023/12/23 10:45:12;;;;;;;8.60;1.83;;;;;;;9.63;100.00;100871.50;5035262;28;20060;-74
2023/12/23 10:47:39;;;;;;;8.60;1.60;;;;;;;9.63;100.00;100881.97;5038040;28;20120;-73
2023/12/23 10:50:06;;;;;;;6.22;1.33;;;;;;;9.64;100.00;100858.38;5027227;28;20041;-73
2023/12/23 10:52:32;;;;;;;7.93;1.83;;;;;;;9.64;100.00;100870.56;5035981;28;20037;-73
2023/12/23 10:55:01;;;;;;;9.35;2.13;;;;;;;9.64;100.00;100868.84;5044695;28;20885;-73
2023/12/23 10:57:28;;;;;;;8.13;1.77;;;;;;;9.64;100.00;100866.22;5046426;28;20360;-73
2023/12/23 10:59:54;;;;;;;7.10;1.23;;;;;;;9.66;100.00;100869.63;5046769;28;20201;-73
2023/12/23 11:02:23;;;;;;;3.42;1.23;;;;;;;9.65;100.00;100875.75;5044923;28;20612;-73
2023/12/23 11:04:51;;;;;;;10.32;1.27;;;;;;;9.67;100.00;100873.94;5047807;28;20419;-73
2023/12/23 11:07:19;;;;;;;3.55;1.30;;;;;;;9.67;100.00;100879.16;5042733;28;20044;-73
2023/12/23 11:09:48;;;;;;;6.47;1.30;;;;;;;9.68;100.00;100887.84;5048797;28;20031;-73
2023/12/23 11:12:15;;;;;;;8.82;1.90;;;;;;;9.68;100.00;100891.34;5045571;28;20059;-75